Time,TemperatureF,DewpointF,PressureIn,WindDirection,WindDirectionDegrees,WindSpeedMPH,WindSpeedGustMPH,Humidity,HourlyPrecipIn,Conditions,Clouds,dailyrainin,SolarRadiationWatts/m^2,SoftwareType,DateUTC
2013-06-01 00:02:00,61.0,60.0,-100.00,West,267,0.0,7.0,97,0.00,,,0.00,0.000000,,2013-06-01 10:02:00,
2013-06-01 00:12:00,61.0,60.0,-100.00,West,267,0.0,7.0,97,0.00,,,0.00,0.000000,,2013-06-01 10:12:00,
2013-06-01 00:22:00,61.0,60.0,-100.00,West,267,0.0,7.0,97,0.00,,,0.00,0.000000,,2013-06-01 10:22:00,
2013-06-01 00:32:00,61.0,60.0,-100.00,West,267,0.0,7.0,97,0.00,,,0.00,0.000000,,2013-06-01 10:32:00,
2013-06-01 00:52:00,61.0,60.0,-100.00,ENE,61,5.0,9.0,96,0.00,,,0.00,0.000000,,2013-06-01 10:52:00,
2013-06-01 01:02:00,61.0,60.0,-100.00,ENE,61,5.0,9.0,96,0.00,,,0.00,0.000000,,2013-06-01 11:02:00,
2013-06-01 01:11:00,61.0,60.0,-100.00,ENE,61,5.0,9.0,96,0.00,,,0.00,0.000000,,2013-06-01 11:11:00,
2013-06-01 01:21:00,61.0,60.0,-100.00,ENE,61,5.0,9.0,96,0.00,,,0.00,0.000000,,2013-06-01 11:21:00,
2013-06-01 01:32:00,61.0,60.0,-100.00,ENE,61,5.0,9.0,96,0.00,,,0.00,0.000000,,2013-06-01 11:32:00,
2013-06-01 01:52:00,61.0,60.0,-100.00,ENE,62,3.0,8.0,97,0.00,,,0.00,0.000000,,2013-06-01 11:52:00,
2013-06-01 02:01:00,61.0,60.0,-100.00,ENE,62,3.0,8.0,97,0.00,,,0.00,0.000000,,2013-06-01 12:01:00,
2013-06-01 02:12:00,61.0,60.0,-100.00,ENE,62,3.0,8.0,97,0.00,,,0.00,0.000000,,2013-06-01 12:12:00,
2013-06-01 02:21:00,61.0,60.0,-100.00,ENE,62,3.0,8.0,97,0.00,,,0.00,0.000000,,2013-06-01 12:21:00,
2013-06-01 02:32:00,61.0,60.0,-100.00,ENE,62,3.0,8.0,97,0.00,,,0.00,0.000000,,2013-06-01 12:32:00,
2013-06-01 02:52:00,60.0,59.0,-100.00,North,349,0.0,9.0,96,0.00,,,0.00,0.000000,,2013-06-01 12:52:00,
2013-06-01 03:01:00,60.0,59.0,-100.00,North,349,0.0,9.0,96,0.00,,,0.00,0.000000,,2013-06-01 13:01:00,
2013-06-01 03:11:00,60.0,59.0,-100.00,North,349,0.0,9.0,96,0.00,,,0.00,0.000000,,2013-06-01 13:11:00,
2013-06-01 03:22:00,60.0,59.0,-100.00,North,349,0.0,9.0,96,0.00,,,0.00,0.000000,,2013-06-01 13:22:00,
2013-06-01 03:32:00,60.0,59.0,-100.00,North,349,0.0,9.0,96,0.00,,,0.00,0.000000,,2013-06-01 13:32:00,
2013-06-01 03:52:00,61.0,60.0,-100.00,NNW,336,0.0,2.0,96,0.00,,,0.00,0.000000,,2013-06-01 13:52:00,
2013-06-01 04:02:00,61.0,60.0,-100.00,NNW,336,0.0,2.0,96,0.00,,,0.00,0.000000,,2013-06-01 14:02:00,
2013-06-01 04:11:00,61.0,60.0,-100.00,NNW,336,0.0,2.0,96,0.00,,,0.00,0.000000,,2013-06-01 14:11:00,
2013-06-01 04:21:00,61.0,60.0,-100.00,NNW,336,0.0,2.0,96,0.00,,,0.00,0.000000,,2013-06-01 14:21:00,
2013-06-01 04:32:00,61.0,60.0,-100.00,NNW,336,0.0,2.0,96,0.00,,,0.00,0.000000,,2013-06-01 14:32:00,
2013-06-01 04:52:00,60.0,59.0,-100.00,ENE,74,0.0,0.0,97,0.00,,,0.00,0.000000,,2013-06-01 14:52:00,
2013-06-01 05:01:00,60.0,59.0,-100.00,ENE,74,0.0,0.0,97,0.00,,,0.00,0.000000,,2013-06-01 15:01:00,
2013-06-01 05:11:00,60.0,59.0,-100.00,ENE,74,0.0,0.0,97,0.00,,,0.00,0.000000,,2013-06-01 15:11:00,
2013-06-01 05:21:00,60.0,59.0,-100.00,ENE,74,0.0,0.0,97,0.00,,,0.00,0.000000,,2013-06-01 15:21:00,
2013-06-01 05:33:00,60.0,59.0,-100.00,ENE,74,0.0,0.0,97,0.00,,,0.00,0.000000,,2013-06-01 15:33:00,
2013-06-01 05:53:00,60.0,60.0,-100.00,ENE,65,0.0,0.0,99,0.00,,,0.00,0.000000,,2013-06-01 15:53:00,
2013-06-01 06:03:00,60.0,60.0,-100.00,ENE,65,0.0,0.0,99,0.00,,,0.00,0.000000,,2013-06-01 16:03:00,
2013-06-01 06:12:00,60.0,60.0,-100.00,ENE,65,0.0,0.0,99,0.00,,,0.00,0.000000,,2013-06-01 16:12:00,
2013-06-01 06:23:00,60.0,60.0,-100.00,ENE,65,0.0,0.0,99,0.00,,,0.00,0.000000,,2013-06-01 16:23:00,
2013-06-01 06:33:00,60.0,60.0,-100.00,ENE,65,0.0,0.0,99,0.00,,,0.00,0.000000,,2013-06-01 16:33:00,
2013-06-01 07:02:00,61.0,61.0,-100.00,ENE,71,0.0,0.0,100,0.00,,,0.00,19.000000,,2013-06-01 17:02:00,
2013-06-01 07:11:00,61.0,61.0,-100.00,ENE,71,0.0,0.0,100,0.00,,,0.00,19.000000,,2013-06-01 17:11:00,
2013-06-01 07:22:00,61.0,61.0,-100.00,ENE,71,0.0,0.0,100,0.00,,,0.00,19.000000,,2013-06-01 17:22:00,
2013-06-01 07:32:00,61.0,61.0,-100.00,ENE,71,0.0,0.0,100,0.00,,,0.00,19.000000,,2013-06-01 17:32:00,
2013-06-01 07:52:00,66.0,61.0,-100.00,North,9,0.0,4.0,84,0.00,,,0.00,199.000000,,2013-06-01 17:52:00,
2013-06-01 08:01:00,66.0,61.0,-100.00,North,9,0.0,4.0,84,0.00,,,0.00,199.000000,,2013-06-01 18:01:00,
2013-06-01 08:12:00,66.0,61.0,-100.00,North,9,0.0,4.0,84,0.00,,,0.00,199.000000,,2013-06-01 18:12:00,
2013-06-01 08:21:00,66.0,61.0,-100.00,North,9,0.0,4.0,84,0.00,,,0.00,199.000000,,2013-06-01 18:21:00,
2013-06-01 08:32:00,66.0,61.0,-100.00,North,9,0.0,4.0,84,0.00,,,0.00,199.000000,,2013-06-01 18:32:00,
2013-06-01 08:52:00,71.0,63.0,-100.00,East,89,3.0,9.0,75,0.00,,,0.00,382.000000,,2013-06-01 18:52:00,
2013-06-01 09:01:00,71.0,63.0,-100.00,East,89,3.0,9.0,75,0.00,,,0.00,382.000000,,2013-06-01 19:01:00,
2013-06-01 09:11:00,71.0,63.0,-100.00,East,89,3.0,9.0,75,0.00,,,0.00,382.000000,,2013-06-01 19:11:00,
2013-06-01 09:21:00,71.0,63.0,-100.00,East,89,3.0,9.0,75,0.00,,,0.00,382.000000,,2013-06-01 19:21:00,
2013-06-01 09:32:00,71.0,63.0,-100.00,East,89,3.0,9.0,75,0.00,,,0.00,382.000000,,2013-06-01 19:32:00,
2013-06-01 09:52:00,70.0,64.0,-100.00,SW,233,2.0,5.0,81,0.00,,,0.00,486.000000,,2013-06-01 19:52:00,
2013-06-01 10:01:00,70.0,64.0,-100.00,SW,233,2.0,5.0,81,0.00,,,0.00,486.000000,,2013-06-01 20:01:00,
2013-06-01 10:12:00,70.0,64.0,-100.00,SW,233,2.0,5.0,81,0.00,,,0.00,486.000000,,2013-06-01 20:12:00,
2013-06-01 10:21:00,70.0,64.0,-100.00,SW,233,2.0,5.0,81,0.00,,,0.00,486.000000,,2013-06-01 20:21:00,
2013-06-01 10:32:00,70.0,64.0,-100.00,SW,233,2.0,5.0,81,0.00,,,0.00,486.000000,,2013-06-01 20:32:00,
2013-06-01 10:52:00,69.0,66.0,-100.00,WSW,238,2.0,4.0,91,0.00,,,0.00,224.000000,,2013-06-01 20:52:00,
2013-06-01 11:01:00,69.0,66.0,-100.00,WSW,238,2.0,4.0,91,0.00,,,0.00,224.000000,,2013-06-01 21:01:00,
2013-06-01 11:11:00,69.0,66.0,-100.00,WSW,238,2.0,4.0,91,0.00,,,0.00,224.000000,,2013-06-01 21:11:00,
2013-06-01 11:21:00,69.0,66.0,-100.00,WSW,238,2.0,4.0,91,0.00,,,0.00,224.000000,,2013-06-01 21:21:00,
2013-06-01 11:33:00,69.0,66.0,-100.00,WSW,238,2.0,4.0,91,0.00,,,0.00,224.000000,,2013-06-01 21:33:00,
2013-06-01 12:03:00,68.0,66.0,-100.00,SW,219,1.0,5.0,92,0.00,,,0.00,226.000000,,2013-06-01 22:03:00,
2013-06-01 12:12:00,68.0,66.0,-100.00,SW,219,1.0,5.0,92,0.00,,,0.00,226.000000,,2013-06-01 22:12:00,
2013-06-01 12:23:00,68.0,66.0,-100.00,SW,219,1.0,5.0,92,0.00,,,0.00,226.000000,,2013-06-01 22:23:00,
2013-06-01 12:33:00,68.0,66.0,-100.00,SW,219,1.0,5.0,92,0.00,,,0.00,226.000000,,2013-06-01 22:33:00,
2013-06-01 12:53:00,71.0,65.0,-100.00,ESE,108,1.0,5.0,81,0.00,,,0.00,307.000000,,2013-06-01 22:53:00,
2013-06-01 13:02:00,71.0,65.0,-100.00,ESE,108,1.0,5.0,81,0.00,,,0.00,307.000000,,2013-06-01 23:02:00,
2013-06-01 13:11:00,71.0,65.0,-100.00,ESE,108,1.0,5.0,81,0.00,,,0.00,307.000000,,2013-06-01 23:11:00,
2013-06-01 13:21:00,71.0,65.0,-100.00,ESE,108,1.0,5.0,81,0.00,,,0.00,307.000000,,2013-06-01 23:21:00,
2013-06-01 13:32:00,71.0,65.0,-100.00,ESE,108,1.0,5.0,81,0.00,,,0.00,307.000000,,2013-06-01 23:32:00,
2013-06-01 13:52:00,70.0,67.0,-100.00,SW,235,2.0,7.0,90,0.00,,,0.00,248.000000,,2013-06-01 23:52:00,
2013-06-01 14:02:00,70.0,67.0,-100.00,SW,235,2.0,7.0,90,0.00,,,0.00,248.000000,,2013-06-02 00:02:00,
2013-06-01 14:11:00,70.0,67.0,-100.00,SW,235,2.0,7.0,90,0.00,,,0.00,248.000000,,2013-06-02 00:11:00,
2013-06-01 14:21:00,70.0,67.0,-100.00,SW,235,2.0,7.0,90,0.00,,,0.00,248.000000,,2013-06-02 00:21:00,
2013-06-01 14:31:00,70.0,67.0,-100.00,SW,235,2.0,7.0,90,0.00,,,0.00,248.000000,,2013-06-02 00:31:00,
2013-06-01 14:52:00,70.0,66.0,-100.00,WSW,239,2.0,6.0,88,0.00,,,0.00,366.000000,,2013-06-02 00:52:00,
2013-06-01 15:01:00,70.0,66.0,-100.00,WSW,239,2.0,6.0,88,0.00,,,0.00,366.000000,,2013-06-02 01:01:00,
2013-06-01 15:11:00,70.0,66.0,-100.00,WSW,239,2.0,6.0,88,0.00,,,0.00,366.000000,,2013-06-02 01:11:00,
2013-06-01 15:21:00,70.0,66.0,-100.00,WSW,239,2.0,6.0,88,0.00,,,0.00,366.000000,,2013-06-02 01:21:00,
2013-06-01 15:32:00,70.0,66.0,-100.00,WSW,239,2.0,6.0,88,0.00,,,0.00,366.000000,,2013-06-02 01:32:00,
2013-06-01 15:52:00,70.0,66.0,-100.00,SE,126,2.0,7.0,86,0.00,,,0.00,317.000000,,2013-06-02 01:52:00,
2013-06-01 16:01:00,70.0,66.0,-100.00,SE,126,2.0,7.0,86,0.00,,,0.00,317.000000,,2013-06-02 02:01:00,
2013-06-01 16:12:00,70.0,66.0,-100.00,SE,126,2.0,7.0,86,0.00,,,0.00,317.000000,,2013-06-02 02:12:00,
2013-06-01 16:21:00,70.0,66.0,-100.00,SE,126,2.0,7.0,86,0.00,,,0.00,317.000000,,2013-06-02 02:21:00,
2013-06-01 16:32:00,70.0,66.0,-100.00,SE,126,2.0,7.0,86,0.00,,,0.00,317.000000,,2013-06-02 02:32:00,
2013-06-01 16:52:00,73.0,60.0,-100.00,ENE,71,4.0,11.0,64,0.00,,,0.00,621.000000,,2013-06-02 02:52:00,
2013-06-01 17:02:00,73.0,60.0,-100.00,ENE,71,4.0,11.0,64,0.00,,,0.00,621.000000,,2013-06-02 03:02:00,
2013-06-01 17:11:00,73.0,60.0,-100.00,ENE,71,4.0,11.0,64,0.00,,,0.00,621.000000,,2013-06-02 03:11:00,
2013-06-01 17:21:00,73.0,60.0,-100.00,ENE,71,4.0,11.0,64,0.00,,,0.00,621.000000,,2013-06-02 03:21:00,
2013-06-01 17:33:00,73.0,60.0,-100.00,ENE,71,4.0,11.0,64,0.00,,,0.00,621.000000,,2013-06-02 03:33:00,
2013-06-01 17:53:00,71.0,63.0,-100.00,SW,229,3.0,9.0,77,0.00,,,0.00,320.000000,,2013-06-02 03:53:00,
2013-06-01 18:02:00,71.0,63.0,-100.00,SW,229,3.0,9.0,77,0.00,,,0.00,320.000000,,2013-06-02 04:02:00,
2013-06-01 18:13:00,71.0,63.0,-100.00,SW,229,3.0,9.0,77,0.00,,,0.00,320.000000,,2013-06-02 04:13:00,
2013-06-01 18:23:00,71.0,63.0,-100.00,SW,229,3.0,9.0,77,0.00,,,0.00,320.000000,,2013-06-02 04:23:00,
2013-06-01 18:33:00,71.0,63.0,-100.00,SW,229,3.0,9.0,77,0.00,,,0.00,320.000000,,2013-06-02 04:33:00,
2013-06-01 18:53:00,69.0,64.0,-100.00,SW,219,2.0,5.0,83,0.00,,,0.00,92.000000,,2013-06-02 04:53:00,
2013-06-01 19:02:00,69.0,64.0,-100.00,SW,219,2.0,5.0,83,0.00,,,0.00,92.000000,,2013-06-02 05:02:00,
2013-06-01 19:11:00,69.0,64.0,-100.00,SW,219,2.0,5.0,83,0.00,,,0.00,92.000000,,2013-06-02 05:11:00,
2013-06-01 19:22:00,69.0,64.0,-100.00,SW,219,2.0,5.0,83,0.00,,,0.00,92.000000,,2013-06-02 05:22:00,
2013-06-01 19:32:00,69.0,64.0,-100.00,SW,219,2.0,5.0,83,0.00,,,0.00,92.000000,,2013-06-02 05:32:00,
2013-06-01 19:52:00,67.0,64.0,-100.00,East,93,1.0,5.0,89,0.00,,,0.00,19.000000,,2013-06-02 05:52:00,
2013-06-01 20:01:00,67.0,64.0,-100.00,East,93,1.0,5.0,89,0.00,,,0.00,19.000000,,2013-06-02 06:01:00,
2013-06-01 20:12:00,67.0,64.0,-100.00,East,93,1.0,5.0,89,0.00,,,0.00,19.000000,,2013-06-02 06:12:00,
2013-06-01 20:21:00,67.0,64.0,-100.00,East,93,1.0,5.0,89,0.00,,,0.00,19.000000,,2013-06-02 06:21:00,
2013-06-01 20:31:00,67.0,64.0,-100.00,East,93,1.0,5.0,89,0.00,,,0.00,19.000000,,2013-06-02 06:31:00,
2013-06-01 20:52:00,66.0,64.0,-100.00,SW,215,0.0,0.0,94,0.00,,,0.00,0.000000,,2013-06-02 06:52:00,
2013-06-01 21:01:00,66.0,64.0,-100.00,SW,215,0.0,0.0,94,0.00,,,0.00,0.000000,,2013-06-02 07:01:00,
2013-06-01 21:11:00,66.0,64.0,-100.00,SW,215,0.0,0.0,94,0.00,,,0.00,0.000000,,2013-06-02 07:11:00,
2013-06-01 21:21:00,66.0,64.0,-100.00,SW,215,0.0,0.0,94,0.00,,,0.00,0.000000,,2013-06-02 07:21:00,
2013-06-01 21:31:00,66.0,64.0,-100.00,SW,215,0.0,0.0,94,0.00,,,0.00,0.000000,,2013-06-02 07:31:00,
2013-06-01 22:01:00,65.0,63.0,-100.00,South,179,0.0,6.0,93,0.00,,,0.00,0.000000,,2013-06-02 08:01:00,
2013-06-01 22:11:00,65.0,63.0,-100.00,South,179,0.0,6.0,93,0.00,,,0.00,0.000000,,2013-06-02 08:11:00,
2013-06-01 22:21:00,65.0,63.0,-100.00,South,179,0.0,6.0,93,0.00,,,0.00,0.000000,,2013-06-02 08:21:00,
2013-06-01 22:31:00,65.0,63.0,-100.00,South,179,0.0,6.0,93,0.00,,,0.00,0.000000,,2013-06-02 08:31:00,
2013-06-01 22:52:00,65.0,63.0,-100.00,ENE,71,5.0,8.0,94,0.00,,,0.00,0.000000,,2013-06-02 08:52:00,
2013-06-01 23:01:00,65.0,63.0,-100.00,ENE,71,5.0,8.0,94,0.00,,,0.00,0.000000,,2013-06-02 09:01:00,
2013-06-01 23:11:00,65.0,63.0,-100.00,ENE,71,5.0,8.0,94,0.00,,,0.00,0.000000,,2013-06-02 09:11:00,
2013-06-01 23:21:00,65.0,63.0,-100.00,ENE,71,5.0,8.0,94,0.00,,,0.00,0.000000,,2013-06-02 09:21:00,
2013-06-01 23:32:00,65.0,63.0,-100.00,ENE,71,5.0,8.0,94,0.00,,,0.00,0.000000,,2013-06-02 09:32:00,
2013-06-01 23:53:00,64.0,62.0,-100.00,East,79,5.0,13.0,93,0.00,,,0.00,0.000000,,2013-06-02 09:53:00,